Time;durP1;ratioP1;P1;durP2;ratioP2;P2;SDS_P1;SDS_P2;PMS_P1;PMS_P2;Temp;Humidity;BMP_temperature;BMP_pressure;BME280_temperature;BME280_humidity;BME280_pressure;Samples;Min_cycle;Max_cycle;Signal;HPM_P1;HPM_P2
2023/12/07 00:02:18;;;;;;;1.67;0.68;;;8.50;96.00;;;;;;5030848;28;20065;-72
2023/12/07 00:04:43;;;;;;;6.72;1.02;;;8.50;95.50;;;;;;5017213;28;20029;-71
2023/12/07 00:07:09;;;;;;;0.30;0.30;;;8.50;95.80;;;;;;5026943;28;20132;-72
2023/12/07 00:09:35;;;;;;;1.38;0.40;;;8.40;95.10;;;;;;5019560;28;20151;-72
2023/12/07 00:12:00;;;;;;;0.20;0.15;;;8.50;95.30;;;;;;5023342;28;20568;-72
2023/12/07 00:14:26;;;;;;;0.57;0.30;;;8.60;95.50;;;;;;5018473;28;20037;-72
2023/12/07 00:16:52;;;;;;;4.80;0.65;;;8.50;95.60;;;;;;5026368;28;20480;-74
2023/12/07 00:19:17;;;;;;;0.80;0.40;;;8.50;95.30;;;;;;5018795;28;20040;-72
2023/12/07 00:21:43;;;;;;;1.75;0.85;;;8.60;95.10;;;;;;5016529;28;20048;-72
2023/12/07 00:24:09;;;;;;;0.38;0.20;;;8.60;95.20;;;;;;5024754;28;20067;-71
2023/12/07 00:26:34;;;;;;;2.90;0.30;;;8.60;94.80;;;;;;5017970;28;20026;-72
2023/12/07 00:29:00;;;;;;;4.07;1.02;;;8.60;95.10;;;;;;5028984;28;20021;-73
2023/12/07 00:31:26;;;;;;;0.50;0.50;;;8.60;96.00;;;;;;5014290;28;20025;-73
2023/12/07 00:33:51;;;;;;;2.17;0.98;;;8.60;95.80;;;;;;5028005;28;20120;-72
2023/12/07 00:36:17;;;;;;;0.70;0.60;;;8.60;96.70;;;;;;5021957;28;20025;-72
2023/12/07 00:38:43;;;;;;;3.80;0.73;;;8.60;96.40;;;;;;5022510;28;20052;-72
2023/12/07 00:41:08;;;;;;;2.13;0.38;;;8.60;96.10;;;;;;5020443;28;20033;-72
2023/12/07 00:43:37;;;;;;;2.10;0.80;;;8.60;96.30;;;;;;5027663;28;20068;-72
2023/12/07 00:46:03;;;;;;;1.30;0.88;;;8.60;97.20;;;;;;5013014;28;20047;-73
2023/12/07 00:48:29;;;;;;;5.72;0.88;;;8.50;97.10;;;;;;5025843;28;20037;-72
2023/12/07 00:50:54;;;;;;;6.32;0.80;;;8.50;97.30;;;;;;5013548;28;20033;-71
2023/12/07 00:53:20;;;;;;;2.55;1.05;;;8.40;97.40;;;;;;5028012;28;20084;-71
2023/12/07 00:55:45;;;;;;;3.90;0.73;;;8.40;98.00;;;;;;5015691;28;20464;-71
2023/12/07 00:58:11;;;;;;;0.45;0.38;;;8.30;97.50;;;;;;5024914;28;20513;-72
2023/12/07 01:00:37;;;;;;;1.15;0.52;;;8.40;97.30;;;;;;5023741;28;20041;-72
2023/12/07 01:03:02;;;;;;;1.45;0.95;;;8.50;97.30;;;;;;5016438;28;20034;-72
2023/12/07 01:05:28;;;;;;;0.82;0.55;;;8.50;97.50;;;;;;5024297;28;20033;-72
2023/12/07 01:07:54;;;;;;;2.17;1.17;;;8.50;97.60;;;;;;5018695;28;20386;-72
2023/12/07 01:10:19;;;;;;;12.80;0.55;;;8.50;97.60;;;;;;5031183;28;20041;-72
2023/12/07 01:12:45;;;;;;;2.80;0.80;;;8.50;98.10;;;;;;5019717;28;20056;-71
2023/12/07 01:15:10;;;;;;;0.40;0.40;;;8.40;98.50;;;;;;5031542;28;20038;-72
2023/12/07 01:17:37;;;;;;;2.53;1.25;;;8.50;98.90;;;;;;5017952;28;20033;-72
2023/12/07 01:20:05;;;;;;;1.40;1.13;;;8.50;99.00;;;;;;5030464;28;20026;-72
2023/12/07 01:22:30;;;;;;;0.60;0.60;;;8.50;99.40;;;;;;5020461;28;20017;-72
2023/12/07 01:24:56;;;;;;;3.47;1.58;;;8.40;99.60;;;;;;5028985;28;20032;-72
2023/12/07 01:27:22;;;;;;;4.47;1.65;;;8.50;99.90;;;;;;5022478;28;20033;-71
2023/12/07 01:29:48;;;;;;;2.42;1.08;;;8.40;99.90;;;;;;5037824;28;20108;-72
2023/12/07 01:32:14;;;;;;;3.45;1.27;;;8.40;99.90;;;;;;5017376;28;20893;-72
2023/12/07 01:34:40;;;;;;;5.68;1.48;;;8.40;99.90;;;;;;5030962;28;20090;-71
2023/12/07 01:37:05;;;;;;;6.53;1.70;;;8.30;99.90;;;;;;5023896;28;20481;-72
2023/12/07 01:39:31;;;;;;;2.88;0.95;;;8.30;99.90;;;;;;5021738;28;20029;-72
2023/12/07 01:41:57;;;;;;;3.65;1.63;;;8.30;99.90;;;;;;5027769;28;20032;-72
2023/12/07 01:44:23;;;;;;;3.80;1.52;;;8.40;99.90;;;;;;5018170;28;20735;-72
2023/12/07 01:46:48;;;;;;;2.42;1.08;;;8.40;99.90;;;;;;5030522;28;20057;-72
2023/12/07 01:49:14;;;;;;;2.42;1.42;;;8.40;99.90;;;;;;5019896;28;20125;-71
2023/12/07 01:51:40;;;;;;;1.80;1.33;;;8.40;99.90;;;;;;5024401;28;20086;-71
2023/12/07 01:54:05;;;;;;;5.43;1.75;;;8.40;99.90;;;;;;5016096;28;20053;-72
2023/12/07 01:56:31;;;;;;;2.03;1.45;;;8.50;99.90;;;;;;5028701;28;20602;-71
2023/12/07 01:58:57;;;;;;;3.53;1.65;;;8.50;99.90;;;;;;5018282;28;20040;-72
2023/12/07 02:01:23;;;;;;;4.82;1.83;;;8.60;99.90;;;;;;5031967;28;20045;-72
2023/12/07 02:03:49;;;;;;;2.17;1.35;;;8.50;99.90;;;;;;5024092;28;20029;-73
2023/12/07 02:06:15;;;;;;;3.42;2.38;;;8.50;99.90;;;;;;5026287;28;20037;-72
2023/12/07 02:08:42;;;;;;;5.47;1.65;;;8.50;99.90;;;;;;5025481;28;20114;-71
2023/12/07 02:11:09;;;;;;;6.53;1.98;;;8.50;99.90;;;;;;5028694;28;20033;-71
2023/12/07 02:13:37;;;;;;;3.70;1.88;;;8.60;99.90;;;;;;5020703;28;20052;-72
2023/12/07 02:20:04;;;;;;;3.97;1.98;;;8.60;99.90;;;;;;5016453;28;20044;-73
2023/12/07 02:22:38;;;;;;;3.90;1.85;;;8.60;99.90;;;;;;5029485;28;20073;-72
2023/12/07 02:25:08;;;;;;;2.47;2.22;;;8.60;99.90;;;;;;5016219;28;20034;-73
2023/12/07 02:27:43;;;;;;;6.72;2.25;;;8.60;99.90;;;;;;5024445;28;20025;-72
2023/12/07 02:30:10;;;;;;;2.00;1.52;;;8.60;99.90;;;;;;5018937;28;20434;-72
2023/12/07 02:32:38;;;;;;;7.28;2.95;;;8.70;99.90;;;;;;5026801;28;20063;-72
2023/12/07 02:35:05;;;;;;;4.40;1.85;;;8.60;99.90;;;;;;5018459;28;20029;-72
2023/12/07 02:37:37;;;;;;;2.85;2.30;;;8.60;99.90;;;;;;5027336;28;20073;-72
2023/12/07 02:40:09;;;;;;;6.35;2.55;;;8.60;99.90;;;;;;5018710;28;20033;-71
2023/12/07 02:42:37;;;;;;;3.53;2.53;;;8.60;99.90;;;;;;5033006;28;20057;-72
2023/12/07 02:45:04;;;;;;;5.22;2.75;;;8.60;99.90;;;;;;5020584;28;20017;-72
2023/12/07 02:47:30;;;;;;;5.57;2.63;;;8.50;99.90;;;;;;5054906;28;20053;-72
2023/12/07 02:49:55;;;;;;;3.90;2.20;;;8.50;99.90;;;;;;5024421;28;20521;-72
2023/12/07 02:52:21;;;;;;;4.25;2.22;;;8.50;99.90;;;;;;5026149;28;20033;-73
2023/12/07 02:54:48;;;;;;;1.95;1.75;;;8.50;99.90;;;;;;5014051;28;20045;-73
2023/12/07 02:57:14;;;;;;;3.42;2.15;;;8.50;99.90;;;;;;5026798;28;20199;-71
2023/12/07 02:59:40;;;;;;;2.70;2.33;;;8.50;99.90;;;;;;5019615;28;20643;-73
2023/12/07 03:02:06;;;;;;;4.40;2.22;;;8.50;99.90;;;;;;5020444;28;20044;-72
2023/12/07 03:04:32;;;;;;;1.90;1.48;;;8.50;99.90;;;;;;5019615;28;20033;-73
2023/12/07 03:06:58;;;;;;;8.10;2.05;;;8.50;99.90;;;;;;5015572;28;20678;-73
2023/12/07 03:09:24;;;;;;;4.15;2.58;;;8.40;99.90;;;;;;5028128;28;20078;-73
2023/12/07 03:11:50;;;;;;;11.98;1.67;;;8.40;99.90;;;;;;5011184;28;20029;-73
2023/12/07 03:14:16;;;;;;;4.28;2.33;;;8.40;99.90;;;;;;5023197;28;20068;-73
2023/12/07 03:16:42;;;;;;;4.32;1.90;;;8.40;99.90;;;;;;5015147;28;20127;-72
2023/12/07 03:19:07;;;;;;;4.88;2.20;;;8.40;99.90;;;;;;5020751;28;20037;-73
2023/12/07 03:21:33;;;;;;;4.57;2.65;;;8.40;99.90;;;;;;5014582;28;20588;-72
2023/12/07 03:23:59;;;;;;;7.82;1.90;;;8.30;99.90;;;;;;5027095;28;20030;-72
2023/12/07 03:26:24;;;;;;;11.88;2.42;;;8.30;99.90;;;;;;5011310;28;20033;-72
2023/12/07 03:28:50;;;;;;;3.67;2.08;;;8.30;99.90;;;;;;5030206;28;20025;-72
2023/12/07 03:31:15;;;;;;;5.05;2.42;;;8.30;99.90;;;;;;5014928;28;20124;-72
2023/12/07 03:33:42;;;;;;;4.07;2.88;;;8.30;99.90;;;;;;5023791;28;20033;-72
2023/12/07 03:36:11;;;;;;;4.97;2.47;;;8.30;99.90;;;;;;5017526;28;20282;-73
2023/12/07 03:38:37;;;;;;;13.88;1.77;;;8.20;99.90;;;;;;5023649;28;20084;-72
2023/12/07 03:41:03;;;;;;;2.17;1.45;;;8.20;99.90;;;;;;5026343;28;20041;-72
2023/12/07 03:43:29;;;;;;;5.22;2.85;;;8.30;99.90;;;;;;5027438;28;20034;-72
2023/12/07 03:45:55;;;;;;;3.70;2.53;;;8.30;99.90;;;;;;5021741;28;20652;-72
2023/12/07 03:48:20;;;;;;;3.03;2.15;;;8.30;99.90;;;;;;5015780;28;20480;-72
2023/12/07 03:50:46;;;;;;;7.32;3.30;;;8.30;99.90;;;;;;5028578;28;20512;-72
2023/12/07 03:53:12;;;;;;;5.65;2.50;;;8.30;99.90;;;;;;5014575;28;20069;-73
2023/12/07 03:55:38;;;;;;;2.03;1.83;;;8.30;99.90;;;;;;5029004;28;20079;-72
2023/12/07 03:58:05;;;;;;;1.88;1.63;;;8.30;99.90;;;;;;5017233;28;20033;-73
2023/12/07 04:00:32;;;;;;;5.03;2.78;;;8.30;99.90;;;;;;5024239;28;20037;-73
2023/12/07 04:02:58;;;;;;;2.67;2.03;;;8.30;99.90;;;;;;5015193;28;20034;-72
2023/12/07 04:05:24;;;;;;;13.35;2.90;;;8.30;99.90;;;;;;5025182;28;20843;-72
2023/12/07 04:07:50;;;;;;;3.67;1.88;;;8.20;99.90;;;;;;5015140;28;20037;-72
2023/12/07 04:10:15;;;;;;;10.70;1.50;;;8.30;99.90;;;;;;5028556;28;20033;-72
2023/12/07 04:12:41;;;;;;;0.70;0.63;;;8.20;99.90;;;;;;5014957;28;20033;-73
2023/12/07 04:15:07;;;;;;;2.05;1.88;;;8.20;99.90;;;;;;5032793;28;20117;-74
2023/12/07 04:17:33;;;;;;;3.38;2.08;;;8.10;99.90;;;;;;5015545;28;20052;-76
2023/12/07 04:19:59;;;;;;;4.22;1.90;;;8.10;99.90;;;;;;5021895;28;20148;-73
2023/12/07 04:22:24;;;;;;;5.05;2.45;;;8.10;99.90;;;;;;5021827;28;20025;-74
2023/12/07 04:24:50;;;;;;;11.23;2.33;;;8.10;99.90;;;;;;5021861;28;20013;-74
2023/12/07 04:27:16;;;;;;;3.33;2.08;;;8.10;99.90;;;;;;5024580;28;20442;-74
2023/12/07 04:29:41;;;;;;;3.58;2.10;;;8.10;99.90;;;;;;5014268;28;20036;-73
2023/12/07 04:32:07;;;;;;;2.90;1.75;;;8.10;99.90;;;;;;5024890;28;20544;-73
2023/12/07 04:34:33;;;;;;;0.95;0.63;;;8.10;99.90;;;;;;5015125;28;20788;-74
2023/12/07 04:36:59;;;;;;;2.40;1.02;;;8.10;99.90;;;;;;5030050;28;20043;-73
2023/12/07 04:39:25;;;;;;;3.08;1.73;;;8.10;99.90;;;;;;5012404;28;20033;-73
2023/12/07 04:41:51;;;;;;;5.88;1.27;;;8.10;99.90;;;;;;5030729;28;21344;-74
2023/12/07 04:44:16;;;;;;;7.45;1.60;;;8.10;99.90;;;;;;5019658;28;20132;-73
2023/12/07 04:46:43;;;;;;;5.22;1.90;;;8.20;99.90;;;;;;5027879;28;20034;-74
2023/12/07 04:49:08;;;;;;;10.48;1.63;;;8.20;99.90;;;;;;5018745;28;20689;-73
2023/12/07 04:51:34;;;;;;;2.20;1.67;;;8.20;99.90;;;;;;5032995;28;20041;-73
2023/12/07 04:54:00;;;;;;;6.72;1.85;;;8.20;99.90;;;;;;5016674;28;20522;-74
2023/12/07 04:56:25;;;;;;;2.08;1.58;;;8.30;99.90;;;;;;5033238;28;20048;-74
2023/12/07 04:58:51;;;;;;;8.60;1.83;;;8.30;99.90;;;;;;5018299;28;20084;-73
2023/12/07 05:01:18;;;;;;;2.10;1.23;;;8.30;99.90;;;;;;5028825;28;20417;-72
2023/12/07 05:03:45;;;;;;;3.85;1.90;;;8.30;99.90;;;;;;5012671;28;20033;-74
2023/12/07 05:06:11;;;;;;;1.35;0.65;;;8.40;99.90;;;;;;5021033;28;20079;-72
2023/12/07 05:08:39;;;;;;;1.85;0.88;;;8.50;99.90;;;;;;5030306;28;20091;-73
2023/12/07 05:11:06;;;;;;;16.50;0.93;;;8.50;99.90;;;;;;5017059;28;20081;-73
2023/12/07 05:13:33;;;;;;;1.05;0.90;;;8.60;99.90;;;;;;5015984;28;20061;-72
2023/12/07 05:15:59;;;;;;;1.88;1.58;;;8.60;99.90;;;;;;5016899;28;20041;-73
2023/12/07 05:18:25;;;;;;;3.80;1.38;;;8.60;99.90;;;;;;5029739;28;20093;-72
2023/12/07 05:20:51;;;;;;;3.38;1.63;;;8.50;99.90;;;;;;5011726;28;20034;-72
2023/12/07 05:23:17;;;;;;;5.43;1.42;;;8.50;99.90;;;;;;5031680;28;20041;-71
2023/12/07 05:25:43;;;;;;;1.08;0.90;;;8.60;99.90;;;;;;5019633;28;20171;-73
2023/12/07 05:28:09;;;;;;;3.13;1.38;;;8.60;99.90;;;;;;5030598;28;20493;-72
2023/12/07 05:30:36;;;;;;;3.15;0.90;;;8.60;99.90;;;;;;5020080;28;20037;-72
2023/12/07 05:33:02;;;;;;;6.20;1.40;;;8.70;99.90;;;;;;5028708;28;20034;-73
2023/12/07 05:35:27;;;;;;;6.05;2.25;;;8.70;99.90;;;;;;5017957;28;20030;-73
2023/12/07 05:37:53;;;;;;;2.47;1.23;;;8.70;99.90;;;;;;5032824;28;20068;-72
2023/12/07 05:40:19;;;;;;;7.72;1.10;;;8.70;99.90;;;;;;5012853;28;20037;-73
2023/12/07 05:42:49;;;;;;;5.07;1.40;;;8.70;99.90;;;;;;5031213;28;20075;-73
2023/12/07 05:45:14;;;;;;;7.38;1.60;;;8.80;99.90;;;;;;5022792;28;20033;-72
2023/12/07 05:47:40;;;;;;;1.23;0.82;;;8.90;99.90;;;;;;5029035;28;20056;-73
2023/12/07 05:50:06;;;;;;;6.38;0.90;;;8.90;99.90;;;;;;5032890;28;20061;-72
2023/12/07 05:52:32;;;;;;;1.45;0.73;;;8.90;99.90;;;;;;5016638;28;20037;-73
2023/12/07 05:54:58;;;;;;;0.70;0.70;;;8.90;99.90;;;;;;5039780;28;20037;-73
2023/12/07 05:57:23;;;;;;;6.53;1.13;;;8.90;99.90;;;;;;5037846;28;20039;-72
2023/12/07 05:59:49;;;;;;;2.20;0.43;;;8.90;99.90;;;;;;5042981;28;20123;-73
2023/12/07 06:02:15;;;;;;;4.00;1.50;;;8.90;99.90;;;;;;5016790;28;20045;-72
2023/12/07 06:04:41;;;;;;;2.88;0.75;;;8.90;99.90;;;;;;5026311;28;20038;-72
2023/12/07 06:07:06;;;;;;;4.85;1.38;;;8.80;99.90;;;;;;5014171;28;20060;-72
2023/12/07 06:09:32;;;;;;;4.32;1.40;;;8.90;99.90;;;;;;5028582;28;20063;-72
2023/12/07 06:11:58;;;;;;;0.88;0.70;;;8.90;99.90;;;;;;5016767;28;20033;-72
2023/12/07 06:14:24;;;;;;;7.63;2.97;;;8.80;99.90;;;;;;5028418;28;20714;-72
2023/12/07 06:16:50;;;;;;;1.40;0.57;;;8.90;99.90;;;;;;5018573;28;20029;-71
2023/12/07 06:19:15;;;;;;;1.30;1.20;;;8.80;99.90;;;;;;5018074;28;20037;-72
2023/12/07 06:21:41;;;;;;;7.38;1.98;;;8.80;99.90;;;;;;5018793;28;20037;-73
2023/12/07 06:24:07;;;;;;;3.33;1.05;;;8.80;99.90;;;;;;5028163;28;20473;-72
2023/12/07 06:26:33;;;;;;;2.50;1.15;;;8.80;99.90;;;;;;5018764;28;20038;-72
2023/12/07 06:28:59;;;;;;;4.22;0.95;;;8.80;99.80;;;;;;5026209;28;20044;-71
2023/12/07 06:31:24;;;;;;;4.72;0.93;;;8.80;99.90;;;;;;5026924;28;20033;-73
2023/12/07 06:33:50;;;;;;;8.07;2.00;;;8.80;99.90;;;;;;5014726;28;20044;-71
2023/12/07 06:36:24;;;;;;;5.53;0.90;;;8.80;99.90;;;;;;5029177;28;20048;-72
2023/12/07 06:38:49;;;;;;;1.60;0.80;;;8.80;99.90;;;;;;5014401;28;20074;-73
2023/12/07 06:41:16;;;;;;;3.60;0.77;;;8.80;99.90;;;;;;5026622;28;20554;-71
2023/12/07 06:43:43;;;;;;;10.75;1.50;;;8.80;99.90;;;;;;5015599;28;20056;-73
2023/12/07 06:46:11;;;;;;;4.97;0.80;;;8.80;99.90;;;;;;5022704;28;20025;-71
2023/12/07 06:48:37;;;;;;;0.68;0.60;;;8.80;99.90;;;;;;5015494;28;20037;-72
2023/12/07 06:51:03;;;;;;;2.90;1.15;;;8.80;99.90;;;;;;5027647;28;20025;-72
2023/12/07 06:53:31;;;;;;;0.50;0.38;;;8.80;99.60;;;;;;5015684;28;20040;-72
2023/12/07 06:55:57;;;;;;;1.17;0.70;;;8.80;99.50;;;;;;5026871;28;20063;-72
2023/12/07 06:58:22;;;;;;;2.78;1.25;;;8.80;99.10;;;;;;5018240;28;20485;-72
2023/12/07 07:00:49;;;;;;;1.00;0.80;;;8.80;99.60;;;;;;5029085;28;20521;-72
2023/12/07 07:03:15;;;;;;;2.88;1.60;;;8.80;98.90;;;;;;5010415;28;20025;-72
2023/12/07 07:05:41;;;;;;;4.10;1.10;;;8.70;99.10;;;;;;5024942;28;20033;-72
2023/12/07 07:08:07;;;;;;;10.75;1.77;;;8.70;99.20;;;;;;5013714;28;20029;-72
2023/12/07 07:10:34;;;;;;;2.97;1.58;;;8.80;99.40;;;;;;5020108;28;20033;-72
2023/12/07 07:13:02;;;;;;;4.93;0.95;;;8.80;99.50;;;;;;5019128;28;20037;-73
2023/12/07 07:15:28;;;;;;;3.95;0.98;;;8.70;99.60;;;;;;5020890;28;20066;-72
2023/12/07 07:17:54;;;;;;;3.97;1.30;;;8.80;99.30;;;;;;5027462;28;20694;-72
2023/12/07 07:20:20;;;;;;;4.40;1.45;;;8.80;99.90;;;;;;5013815;28;20030;-72
2023/12/07 07:22:46;;;;;;;14.20;2.08;;;8.80;99.80;;;;;;5029701;28;20022;-73
2023/12/07 07:25:12;;;;;;;5.60;1.02;;;8.80;99.40;;;;;;5018047;28;20872;-72
2023/12/07 07:27:37;;;;;;;1.88;1.10;;;8.80;99.30;;;;;;5026470;28;20615;-73
2023/12/07 07:30:04;;;;;;;1.83;1.15;;;8.80;99.90;;;;;;5019519;28;20033;-73
2023/12/07 07:32:30;;;;;;;1.15;0.90;;;8.80;99.90;;;;;;5027304;28;20053;-73
2023/12/07 07:34:56;;;;;;;2.97;1.15;;;8.80;99.80;;;;;;5017951;28;20041;-72
2023/12/07 07:37:22;;;;;;;0.68;0.68;;;8.70;99.20;;;;;;5026823;28;20082;-72
2023/12/07 07:39:47;;;;;;;1.17;0.95;;;8.80;99.70;;;;;;5010631;28;20041;-71
2023/12/07 07:42:13;;;;;;;1.42;0.82;;;8.80;99.90;;;;;;5026645;28;20488;-72
2023/12/07 07:44:39;;;;;;;1.00;0.80;;;8.70;99.90;;;;;;5011204;28;20068;-72
2023/12/07 07:47:05;;;;;;;2.25;0.90;;;8.80;99.90;;;;;;5019007;28;20512;-72
2023/12/07 07:49:30;;;;;;;3.47;1.70;;;8.70;99.90;;;;;;5012755;28;20030;-72
2023/12/07 07:51:56;;;;;;;7.57;1.45;;;8.70;99.90;;;;;;5026886;28;20028;-71
2023/12/07 07:54:21;;;;;;;9.80;2.17;;;8.80;99.40;;;;;;5017464;28;20501;-72
2023/12/07 07:56:47;;;;;;;10.60;1.00;;;8.70;99.90;;;;;;5012464;28;20049;-72
2023/12/07 07:59:13;;;;;;;3.53;1.00;;;8.70;99.90;;;;;;5014513;28;20378;-72
2023/12/07 08:01:38;;;;;;;1.25;0.75;;;8.80;99.90;;;;;;5005891;28;20393;-72
2023/12/07 08:04:04;;;;;;;4.82;1.50;;;8.70;99.90;;;;;;5017867;28;20084;-72
2023/12/07 08:06:29;;;;;;;3.75;1.27;;;8.80;99.90;;;;;;5001861;28;20195;-72
2023/12/07 08:08:55;;;;;;;1.40;0.77;;;8.80;99.90;;;;;;5014758;28;20035;-72
2023/12/07 08:11:21;;;;;;;12.73;1.40;;;8.80;99.90;;;;;;5003401;28;20647;-70
2023/12/07 08:13:47;;;;;;;2.35;1.33;;;8.90;99.90;;;;;;5011645;28;20037;-70
2023/12/07 08:16:13;;;;;;;3.30;1.17;;;8.80;99.40;;;;;;5003885;28;20071;-71
2023/12/07 08:18:38;;;;;;;0.98;0.80;;;8.90;99.50;;;;;;5013194;28;20549;-72
2023/12/07 08:21:04;;;;;;;3.70;1.13;;;8.90;99.60;;;;;;5003841;28;20037;-71
2023/12/07 08:23:30;;;;;;;1.40;0.93;;;8.90;99.60;;;;;;5018056;28;20045;-73
2023/12/07 08:25:57;;;;;;;2.22;1.20;;;8.90;99.30;;;;;;5006684;28;20051;-72
2023/12/07 08:28:22;;;;;;;3.08;1.10;;;8.90;99.70;;;;;;5015376;28;20055;-72
2023/12/07 08:30:48;;;;;;;1.23;0.65;;;8.90;99.90;;;;;;5009018;28;20032;-72
2023/12/07 08:33:14;;;;;;;1.73;0.70;;;8.90;99.90;;;;;;5018708;28;20120;-71
2023/12/07 08:35:40;;;;;;;3.47;1.80;;;8.90;99.70;;;;;;5016767;28;20033;-70
2023/12/07 08:38:06;;;;;;;1.73;1.63;;;8.90;99.80;;;;;;5012957;28;20037;-72
2023/12/07 08:40:31;;;;;;;3.45;0.95;;;9.00;99.60;;;;;;5017817;28;20486;-71
2023/12/07 08:42:57;;;;;;;2.03;0.70;;;8.90;98.80;;;;;;5024712;28;20591;-69
2023/12/07 08:45:23;;;;;;;7.22;1.33;;;8.90;98.80;;;;;;5019224;28;20148;-70
2023/12/07 08:47:49;;;;;;;6.22;1.13;;;9.00;99.80;;;;;;5012563;28;20094;-70
2023/12/07 08:50:15;;;;;;;3.85;1.25;;;9.00;99.20;;;;;;5021232;28;20037;-71
2023/12/07 08:52:40;;;;;;;1.20;0.98;;;9.00;99.20;;;;;;5009015;28;20445;-73
2023/12/07 08:55:06;;;;;;;2.55;0.73;;;9.00;99.70;;;;;;5017781;28;20093;-70
2023/12/07 08:57:32;;;;;;;3.75;1.35;;;9.00;99.60;;;;;;5009346;28;20072;-69
2023/12/07 08:59:59;;;;;;;1.85;0.57;;;9.10;98.70;;;;;;5016860;28;20036;-69
2023/12/07 09:02:25;;;;;;;2.88;0.65;;;9.10;98.00;;;;;;5016472;28;20037;-69
2023/12/07 09:04:51;;;;;;;9.07;1.08;;;9.20;98.10;;;;;;5020925;28;20042;-71
2023/12/07 09:07:17;;;;;;;2.28;1.10;;;9.20;98.10;;;;;;5008940;28;20062;-73
2023/12/07 09:09:46;;;;;;;1.55;0.65;;;9.20;98.00;;;;;;5023466;28;20658;-71
2023/12/07 09:12:14;;;;;;;1.48;0.88;;;9.20;97.20;;;;;;5014198;28;20151;-72
2023/12/07 09:14:39;;;;;;;5.25;0.52;;;9.30;97.20;;;;;;5015243;28;20512;-73
2023/12/07 09:17:05;;;;;;;2.50;1.00;;;9.20;97.00;;;;;;5020517;28;20029;-73
2023/12/07 09:19:31;;;;;;;6.75;0.68;;;9.20;97.40;;;;;;5004780;28;20033;-70
2023/12/07 09:21:58;;;;;;;0.68;0.60;;;9.30;97.00;;;;;;5017583;28;20053;-74
2023/12/07 09:24:24;;;;;;;4.50;1.42;;;9.30;96.50;;;;;;5011795;28;20421;-72
2023/12/07 09:26:49;;;;;;;2.42;0.90;;;9.30;96.60;;;;;;5017126;28;20067;-73
2023/12/07 09:29:15;;;;;;;5.53;1.08;;;9.20;97.30;;;;;;5008970;28;20488;-74
2023/12/07 09:31:41;;;;;;;0.52;0.20;;;9.30;96.90;;;;;;5020757;28;20065;-74
2023/12/07 09:34:08;;;;;;;2.78;0.52;;;9.30;96.70;;;;;;5005921;28;20214;-73
2023/12/07 09:36:34;;;;;;;14.52;1.60;;;9.40;96.70;;;;;;5023312;28;20029;-73
2023/12/07 09:38:59;;;;;;;2.90;0.90;;;9.40;95.50;;;;;;5029254;28;20109;-71
2023/12/07 09:41:28;;;;;;;0.52;0.45;;;9.40;95.70;;;;;;5022275;28;20037;-71
2023/12/07 09:43:55;;;;;;;3.17;0.80;;;9.50;96.10;;;;;;5004633;28;20041;-70
2023/12/07 09:46:20;;;;;;;1.27;0.40;;;9.50;96.20;;;;;;5012681;28;20036;-74
2023/12/07 09:48:48;;;;;;;1.58;1.00;;;9.50;95.80;;;;;;5004578;28;20082;-72
2023/12/07 09:51:15;;;;;;;14.63;1.00;;;9.50;95.20;;;;;;5015724;28;20028;-73
2023/12/07 09:53:44;;;;;;;2.45;0.90;;;9.50;95.20;;;;;;5000654;28;20062;-72
2023/12/07 09:56:10;;;;;;;5.05;0.85;;;9.50;95.80;;;;;;5014582;28;20043;-74
2023/12/07 09:58:36;;;;;;;2.88;0.82;;;9.50;96.40;;;;;;5000799;28;21205;-70
2023/12/07 10:01:02;;;;;;;0.20;0.20;;;9.60;96.10;;;;;;5007458;28;20061;-75
2023/12/07 10:03:28;;;;;;;4.68;1.27;;;9.50;94.90;;;;;;5018437;28;20075;-73
2023/12/07 10:05:59;;;;;;;2.95;0.77;;;9.50;95.40;;;;;;5006531;28;20052;-73
2023/12/07 10:08:27;;;;;;;1.05;0.50;;;9.50;94.10;;;;;;5012059;28;20490;-73
2023/12/07 10:11:03;;;;;;;1.70;0.75;;;9.50;94.00;;;;;;4991778;28;20041;-72
2023/12/07 10:13:30;;;;;;;1.50;0.40;;;9.50;94.70;;;;;;5006848;28;20033;-74
2023/12/07 10:16:14;;;;;;;2.90;0.75;;;9.50;95.00;;;;;;5010318;28;20056;-73
2023/12/07 10:18:40;;;;;;;0.52;0.40;;;9.50;94.60;;;;;;5020919;28;20051;-71
2023/12/07 10:21:09;;;;;;;1.02;0.93;;;9.50;93.80;;;;;;4996914;28;20043;-73
2023/12/07 10:23:35;;;;;;;9.20;0.93;;;9.50;94.90;;;;;;5005581;28;20469;-72
2023/12/07 10:26:01;;;;;;;4.53;1.05;;;9.50;93.80;;;;;;4996440;28;20515;-73
2023/12/07 10:28:27;;;;;;;0.88;0.50;;;9.50;93.90;;;;;;5002934;28;20034;-72
2023/12/07 10:30:53;;;;;;;3.13;0.88;;;9.50;93.40;;;;;;5003705;28;20110;-73
2023/12/07 10:33:19;;;;;;;1.63;0.55;;;9.40;94.00;;;;;;5017540;28;20104;-73
2023/12/07 10:35:48;;;;;;;0.77;0.73;;;9.50;93.60;;;;;;5011188;28;20033;-73
2023/12/07 10:38:14;;;;;;;0.83;0.50;;;9.40;93.80;;;;;;5016756;28;20037;-71
2023/12/07 10:40:40;;;;;;;2.50;0.93;;;9.50;93.40;;;;;;5003287;28;20402;-72
2023/12/07 10:43:08;;;;;;;1.17;0.68;;;9.40;93.60;;;;;;5015025;28;20040;-74
2023/12/07 10:45:35;;;;;;;1.73;1.50;;;9.40;93.50;;;;;;5006407;28;20762;-77
2023/12/07 10:48:09;;;;;;;4.32;0.75;;;9.40;92.90;;;;;;5008376;28;20084;-70
2023/12/07 10:50:41;;;;;;;5.57;1.15;;;9.40;93.70;;;;;;5004720;28;20271;-69
2023/12/07 10:53:19;;;;;;;10.40;1.05;;;9.40;94.20;;;;;;5011821;28;20056;-70
2023/12/07 10:55:52;;;;;;;8.93;1.48;;;9.40;93.90;;;;;;5003639;28;20040;-71
2023/12/07 10:58:18;;;;;;;4.00;1.00;;;9.40;94.60;;;;;;5016432;28;20068;-70
2023/12/07 11:00:47;;;;;;;4.85;1.08;;;9.40;94.40;;;;;;4993895;28;20076;-70
2023/12/07 11:03:17;;;;;;;2.92;1.67;;;9.40;94.50;;;;;;5010282;28;20036;-69
2023/12/07 11:05:44;;;;;;;4.07;1.05;;;9.40;94.10;;;;;;4999684;28;20513;-70
2023/12/07 11:08:18;;;;;;;3.28;0.80;;;9.40;93.60;;;;;;5004999;28;20056;-70
2023/12/07 11:11:06;;;;;;;2.25;0.55;;;9.30;94.10;;;;;;5003374;28;20076;-72
2023/12/07 11:13:35;;;;;;;1.77;1.15;;;9.40;94.50;;;;;;5004471;28;20069;-71
2023/12/07 11:16:01;;;;;;;;;;;9.40;94.00;;;;;;4998933;28;21022;-71
2023/12/07 11:18:28;;;;;;;3.35;1.30;;;9.40;94.30;;;;;;5008664;28;20691;-72
2023/12/07 11:20:55;;;;;;;3.20;0.68;;;9.40;93.90;;;;;;5008518;28;20892;-72
2023/12/07 11:23:21;;;;;;;2.78;0.75;;;9.40;93.80;;;;;;5004252;28;21393;-72
2023/12/07 11:25:50;;;;;;;5.78;1.45;;;9.40;94.90;;;;;;5021272;28;20029;-71
2023/12/07 11:28:16;;;;;;;1.85;0.73;;;9.40;94.60;;;;;;5009316;28;20124;-71
2023/12/07 11:30:44;;;;;;;2.20;1.08;;;9.40;93.70;;;;;;5024944;28;20037;-72
2023/12/07 11:33:12;;;;;;;1.60;0.57;;;9.40;94.20;;;;;;5011429;28;20034;-71
2023/12/07 11:36:06;;;;;;;1.02;0.95;;;9.40;94.00;;;;;;5019342;28;20051;-71
2023/12/07 11:38:32;;;;;;;3.13;0.95;;;9.50;93.90;;;;;;5010043;28;20033;-71
2023/12/07 11:40:57;;;;;;;1.95;0.75;;;9.40;93.10;;;;;;5015717;28;20044;-73
2023/12/07 11:43:43;;;;;;;0.90;0.55;;;9.50;94.10;;;;;;5016707;28;20429;-72
2023/12/07 11:46:10;;;;;;;3.70;0.50;;;9.40;93.90;;;;;;5018439;28;20037;-71
2023/12/07 11:48:35;;;;;;;1.08;0.65;;;9.50;93.50;;;;;;5005777;28;20048;-72
2023/12/07 11:51:07;;;;;;;0.47;0.47;;;9.50;94.20;;;;;;5023356;28;20391;-72
2023/12/07 11:53:35;;;;;;;2.42;0.95;;;9.50;94.70;;;;;;5004142;28;20418;-72
2023/12/07 11:56:05;;;;;;;4.93;1.35;;;9.50;93.20;;;;;;5019608;28;20033;-71
2023/12/07 11:58:33;;;;;;;5.05;1.20;;;9.50;94.50;;;;;;5005191;28;20037;-71
2023/12/07 12:01:00;;;;;;;0.65;0.40;;;9.50;94.20;;;;;;5012433;28;20064;-72
2023/12/07 12:03:27;;;;;;;1.00;0.65;;;9.50;94.00;;;;;;5007981;28;20041;-72
2023/12/07 12:05:54;;;;;;;5.32;0.90;;;9.50;93.90;;;;;;5019969;28;20043;-71
2023/12/07 12:08:20;;;;;;;1.33;0.85;;;9.50;94.40;;;;;;5007512;28;20037;-71
2023/12/07 12:10:48;;;;;;;7.20;1.10;;;9.40;95.80;;;;;;5023364;28;20772;-71
2023/12/07 12:13:14;;;;;;;7.32;1.48;;;9.40;95.40;;;;;;5008716;28;20084;-71
2023/12/07 12:15:40;;;;;;;2.17;0.55;;;9.40;95.10;;;;;;5017901;28;20029;-73
2023/12/07 12:18:07;;;;;;;1.60;0.93;;;9.30;95.10;;;;;;5014057;28;20052;-72
2023/12/07 12:20:33;;;;;;;4.50;2.25;;;9.20;95.70;;;;;;5006973;28;20037;-73
2023/12/07 12:22:59;;;;;;;15.70;1.77;;;9.10;95.00;;;;;;5013863;28;20026;-73
2023/12/07 12:25:28;;;;;;;8.07;1.50;;;9.10;95.60;;;;;;5004566;28;20633;-72
2023/12/07 12:27:56;;;;;;;6.22;1.52;;;9.00;96.60;;;;;;5009294;28;20559;-72
2023/12/07 12:30:22;;;;;;;2.03;0.85;;;9.00;96.60;;;;;;5011359;28;20045;-74
2023/12/07 12:32:48;;;;;;;3.47;1.52;;;8.90;96.80;;;;;;5020998;28;20072;-72
2023/12/07 12:35:15;;;;;;;1.55;1.38;;;8.80;97.40;;;;;;5012257;28;20056;-72
2023/12/07 12:37:43;;;;;;;1.27;0.68;;;8.80;97.60;;;;;;5024542;28;20029;-73
2023/12/07 12:40:10;;;;;;;7.22;0.85;;;8.70;98.00;;;;;;5009600;28;20025;-74
2023/12/07 12:42:37;;;;;;;9.45;0.73;;;8.70;98.80;;;;;;5022903;28;20577;-73
2023/12/07 12:45:05;;;;;;;5.60;1.60;;;8.60;99.40;;;;;;5014570;28;20620;-72
2023/12/07 12:47:31;;;;;;;0.82;0.50;;;8.60;99.50;;;;;;5019799;28;20033;-71
2023/12/07 12:49:57;;;;;;;2.50;1.27;;;8.50;99.50;;;;;;5012574;28;20027;-74
2023/12/07 12:52:25;;;;;;;5.30;1.77;;;8.40;99.60;;;;;;5025286;28;20358;-73
2023/12/07 12:54:51;;;;;;;10.93;2.33;;;8.40;99.90;;;;;;5010701;28;20697;-73
2023/12/07 12:57:18;;;;;;;6.45;2.15;;;8.20;99.80;;;;;;5023277;28;20033;-72
2023/12/07 12:59:45;;;;;;;1.65;0.98;;;8.20;99.60;;;;;;5007261;28;20495;-74